sensor_id;sensor_type;location;lat;lon;timestamp;pressure;altitude;pressure_sealevel;temperature;humidity
7309;BME280;3695;53.330;9.876;2023-02-03T00:01:35;109747.28;;;6.62;100.00
7309;BME280;3695;53.330;9.876;2023-02-03T00:04:02;109922.00;;;6.66;100.00
7309;BME280;3695;53.330;9.876;2023-02-03T00:06:29;110055.38;;;6.74;100.00
7309;BME280;3695;53.330;9.876;2023-02-03T00:08:58;110181.63;;;6.83;100.00
7309;BME280;3695;53.330;9.876;2023-02-03T00:11:26;110279.84;;;6.86;100.00
7309;BME280;3695;53.330;9.876;2023-02-03T00:13:52;110413.00;;;6.82;100.00
7309;BME280;3695;53.330;9.876;2023-02-03T00:16:18;110752.03;;;6.97;100.00
7309;BME280;3695;53.330;9.876;2023-02-03T00:18:45;110962.19;;;7.05;100.00
7309;BME280;3695;53.330;9.876;2023-02-03T00:21:11;111141.50;;;7.06;100.00
7309;BME280;3695;53.330;9.876;2023-02-03T00:23:39;111376.56;;;7.25;100.00
7309;BME280;3695;53.330;9.876;2023-02-03T00:26:08;111679.41;;;7.25;100.00
7309;BME280;3695;53.330;9.876;2023-02-03T00:28:34;111893.47;;;7.34;100.00
7309;BME280;3695;53.330;9.876;2023-02-03T00:31:01;111968.03;;;7.29;100.00
7309;BME280;3695;53.330;9.876;2023-02-03T00:33:28;112192.97;;;7.54;100.00
7309;BME280;3695;53.330;9.876;2023-02-03T00:35:54;112238.13;;;7.55;100.00
7309;BME280;3695;53.330;9.876;2023-02-03T00:38:21;112376.56;;;7.63;100.00
7309;BME280;3695;53.330;9.876;2023-02-03T00:40:51;112489.31;;;7.63;100.00
7309;BME280;3695;53.330;9.876;2023-02-03T00:43:19;112505.16;;;7.56;100.00
7309;BME280;3695;53.330;9.876;2023-02-03T00:45:45;112553.22;;;7.61;100.00
7309;BME280;3695;53.330;9.876;2023-02-03T00:48:12;112792.00;;;7.56;100.00
7309;BME280;3695;53.330;9.876;2023-02-03T00:50:39;113077.00;;;7.55;100.00
7309;BME280;3695;53.330;9.876;2023-02-03T00:53:05;113498.28;;;7.67;100.00
7309;BME280;3695;53.330;9.876;2023-02-03T00:55:32;114190.44;;;7.66;100.00
7309;BME280;3695;53.330;9.876;2023-02-03T00:57:58;115025.69;;;7.60;100.00
7309;BME280;3695;53.330;9.876;2023-02-03T01:00:26;115977.41;;;7.69;100.00
7309;BME280;3695;53.330;9.876;2023-02-03T01:02:53;116635.41;;;7.73;100.00
7309;BME280;3695;53.330;9.876;2023-02-03T01:05:19;115547.78;;;7.71;100.00
7309;BME280;3695;53.330;9.876;2023-02-03T01:07:46;115515.28;;;7.71;100.00
7309;BME280;3695;53.330;9.876;2023-02-03T01:10:12;115297.94;;;7.65;100.00
7309;BME280;3695;53.330;9.876;2023-02-03T01:12:39;115469.69;;;7.67;100.00
7309;BME280;3695;53.330;9.876;2023-02-03T01:15:07;115669.88;;;7.81;100.00
7309;BME280;3695;53.330;9.876;2023-02-03T01:17:37;115384.44;;;7.72;100.00
7309;BME280;3695;53.330;9.876;2023-02-03T01:20:04;115546.50;;;7.84;100.00
7309;BME280;3695;53.330;9.876;2023-02-03T01:22:31;115381.84;;;7.99;100.00
7309;BME280;3695;53.330;9.876;2023-02-03T01:24:57;114990.72;;;7.90;100.00
7309;BME280;3695;53.330;9.876;2023-02-03T01:27:24;114781.34;;;8.01;100.00
7309;BME280;3695;53.330;9.876;2023-02-03T01:29:50;114356.53;;;7.87;100.00
7309;BME280;3695;53.330;9.876;2023-02-03T01:32:16;114145.50;;;7.90;100.00
7309;BME280;3695;53.330;9.876;2023-02-03T01:34:44;113953.75;;;7.86;100.00
7309;BME280;3695;53.330;9.876;2023-02-03T01:37:11;113913.97;;;7.97;100.00
7309;BME280;3695;53.330;9.876;2023-02-03T01:39:38;113673.88;;;7.85;100.00
7309;BME280;3695;53.330;9.876;2023-02-03T01:42:07;113663.25;;;7.88;100.00
7309;BME280;3695;53.330;9.876;2023-02-03T01:44:38;113561.06;;;7.86;100.00
7309;BME280;3695;53.330;9.876;2023-02-03T01:47:12;113468.56;;;7.80;100.00
7309;BME280;3695;53.330;9.876;2023-02-03T01:49:46;113483.03;;;7.80;100.00
7309;BME280;3695;53.330;9.876;2023-02-03T01:52:14;113561.06;;;7.86;100.00
7309;BME280;3695;53.330;9.876;2023-02-03T01:54:43;113608.66;;;7.82;100.00
7309;BME280;3695;53.330;9.876;2023-02-03T01:57:16;113565.81;;;7.77;100.00
7309;BME280;3695;53.330;9.876;2023-02-03T01:59:45;113646.06;;;7.88;100.00
7309;BME280;3695;53.330;9.876;2023-02-03T02:02:25;113547.75;;;7.89;100.00
7309;BME280;3695;53.330;9.876;2023-02-03T02:08:15;113268.41;;;7.83;100.00
7309;BME280;3695;53.330;9.876;2023-02-03T02:10:44;113155.59;;;7.83;100.00
7309;BME280;3695;53.330;9.876;2023-02-03T02:13:11;113110.91;;;7.90;100.00
7309;BME280;3695;53.330;9.876;2023-02-03T02:15:43;113039.97;;;7.96;100.00
7309;BME280;3695;53.330;9.876;2023-02-03T02:18:23;112773.28;;;7.89;100.00
7309;BME280;3695;53.330;9.876;2023-02-03T02:24:53;112618.00;;;7.88;100.00
7309;BME280;3695;53.330;9.876;2023-02-03T02:27:32;112588.16;;;7.87;100.00
7309;BME280;3695;53.330;9.876;2023-02-03T02:30:21;112481.38;;;7.82;100.00
7309;BME280;3695;53.330;9.876;2023-02-03T02:33:01;112364.59;;;7.92;100.00
7309;BME280;3695;53.330;9.876;2023-02-03T02:35:42;112311.50;;;7.78;100.00
7309;BME280;3695;53.330;9.876;2023-02-03T02:38:16;112330.88;;;7.85;100.00
7309;BME280;3695;53.330;9.876;2023-02-03T02:40:50;112251.19;;;7.80;100.00
7309;BME280;3695;53.330;9.876;2023-02-03T02:43:22;112348.81;;;7.83;100.00
7309;BME280;3695;53.330;9.876;2023-02-03T02:45:54;112438.13;;;7.83;100.00
7309;BME280;3695;53.330;9.876;2023-02-03T02:48:28;112322.34;;;7.78;100.00
7309;BME280;3695;53.330;9.876;2023-02-03T02:50:58;112329.94;;;7.85;100.00
7309;BME280;3695;53.330;9.876;2023-02-03T02:53:32;112225.50;;;7.72;100.00
7309;BME280;3695;53.330;9.876;2023-02-03T02:56:02;112183.28;;;7.76;100.00
7309;BME280;3695;53.330;9.876;2023-02-03T02:58:31;112255.84;;;7.83;100.00
7309;BME280;3695;53.330;9.876;2023-02-03T03:01:00;112173.38;;;7.94;100.00
7309;BME280;3695;53.330;9.876;2023-02-03T03:03:29;111958.31;;;7.87;100.00
7309;BME280;3695;53.330;9.876;2023-02-03T03:05:59;111930.22;;;7.85;100.00
7309;BME280;3695;53.330;9.876;2023-02-03T03:08:32;111842.75;;;7.86;100.00
7309;BME280;3695;53.330;9.876;2023-02-03T03:11:00;111720.28;;;7.92;100.00
7309;BME280;3695;53.330;9.876;2023-02-03T03:13:31;111609.53;;;7.76;100.00
7309;BME280;3695;53.330;9.876;2023-02-03T03:16:00;111613.75;;;7.90;100.00
7309;BME280;3695;53.330;9.876;2023-02-03T03:18:33;111464.88;;;7.90;100.00
7309;BME280;3695;53.330;9.876;2023-02-03T03:21:03;111316.22;;;7.96;100.00
7309;BME280;3695;53.330;9.876;2023-02-03T03:23:33;111129.34;;;8.18;100.00
7309;BME280;3695;53.330;9.876;2023-02-03T03:26:08;110242.09;;;8.10;100.00
7309;BME280;3695;53.330;9.876;2023-02-03T03:28:41;109958.88;;;8.15;100.00
7309;BME280;3695;53.330;9.876;2023-02-03T03:31:10;109747.84;;;8.23;100.00
7309;BME280;3695;53.330;9.876;2023-02-03T03:33:39;109517.69;;;8.10;100.00
7309;BME280;3695;53.330;9.876;2023-02-03T03:36:11;109287.72;;;8.15;100.00
7309;BME280;3695;53.330;9.876;2023-02-03T03:38:43;109154.22;;;8.13;100.00
7309;BME280;3695;53.330;9.876;2023-02-03T03:41:15;109025.25;;;8.04;100.00
7309;BME280;3695;53.330;9.876;2023-02-03T03:43:46;108843.06;;;8.08;100.00
7309;BME280;3695;53.330;9.876;2023-02-03T03:46:18;108835.84;;;8.06;100.00
7309;BME280;3695;53.330;9.876;2023-02-03T03:48:50;108683.47;;;8.05;100.00
7309;BME280;3695;53.330;9.876;2023-02-03T03:51:20;108561.63;;;8.17;100.00
7309;BME280;3695;53.330;9.876;2023-02-03T03:53:49;108385.91;;;8.05;100.00
7309;BME280;3695;53.330;9.876;2023-02-03T03:56:20;108380.47;;;8.07;100.00
7309;BME280;3695;53.330;9.876;2023-02-03T03:58:48;108350.69;;;8.11;100.00
7309;BME280;3695;53.330;9.876;2023-02-03T04:01:18;108252.50;;;8.00;100.00
7309;BME280;3695;53.330;9.876;2023-02-03T04:03:49;108215.50;;;8.02;100.00
7309;BME280;3695;53.330;9.876;2023-02-03T04:06:18;108193.78;;;8.11;100.00
7309;BME280;3695;53.330;9.876;2023-02-03T04:08:44;108123.44;;;8.11;100.00
7309;BME280;3695;53.330;9.876;2023-02-03T04:11:10;108007.22;;;8.07;100.00
7309;BME280;3695;53.330;9.876;2023-02-03T04:13:57;107991.66;;;8.19;100.00
7309;BME280;3695;53.330;9.876;2023-02-03T04:16:23;107885.53;;;8.05;100.00
7309;BME280;3695;53.330;9.876;2023-02-03T04:18:51;107838.84;;;7.94;100.00
7309;BME280;3695;53.330;9.876;2023-02-03T04:21:17;107903.56;;;8.03;100.00
7309;BME280;3695;53.330;9.876;2023-02-03T04:23:44;107926.97;;;8.07;100.00
7309;BME280;3695;53.330;9.876;2023-02-03T04:26:11;107951.09;;;8.18;100.00
7309;BME280;3695;53.330;9.876;2023-02-03T04:28:37;107921.59;;;8.04;100.00
7309;BME280;3695;53.330;9.876;2023-02-03T04:31:03;107669.34;;;7.96;100.00
7309;BME280;3695;53.330;9.876;2023-02-03T04:33:30;108040.69;;;7.98;100.00
7309;BME280;3695;53.330;9.876;2023-02-03T04:35:57;108198.38;;;8.03;100.00
7309;BME280;3695;53.330;9.876;2023-02-03T04:38:24;108341.84;;;7.91;100.00
7309;BME280;3695;53.330;9.876;2023-02-03T04:40:50;108450.88;;;7.98;100.00
7309;BME280;3695;53.330;9.876;2023-02-03T04:43:17;108488.00;;;7.79;100.00
7309;BME280;3695;53.330;9.876;2023-02-03T04:45:43;108713.22;;;8.02;100.00
7309;BME280;3695;53.330;9.876;2023-02-03T04:48:09;108648.38;;;7.87;100.00
7309;BME280;3695;53.330;9.876;2023-02-03T04:50:36;108719.56;;;7.94;100.00
7309;BME280;3695;53.330;9.876;2023-02-03T04:53:04;108770.94;;;7.98;100.00
7309;BME280;3695;53.330;9.876;2023-02-03T04:55:30;108659.25;;;7.78;100.00
7309;BME280;3695;53.330;9.876;2023-02-03T04:57:58;108896.28;;;7.89;100.00
7309;BME280;3695;53.330;9.876;2023-02-03T05:00:25;108936.84;;;7.88;100.00
7309;BME280;3695;53.330;9.876;2023-02-03T05:02:52;109029.72;;;8.04;100.00
7309;BME280;3695;53.330;9.876;2023-02-03T05:05:18;108989.16;;;8.07;100.00
7309;BME280;3695;53.330;9.876;2023-02-03T05:07:45;108893.56;;;7.99;100.00
7309;BME280;3695;53.330;9.876;2023-02-03T05:10:13;108836.78;;;7.91;100.00
7309;BME280;3695;53.330;9.876;2023-02-03T05:12:39;108843.94;;;8.03;100.00
7309;BME280;3695;53.330;9.876;2023-02-03T05:15:06;108839.47;;;8.06;100.00
7309;BME280;3695;53.330;9.876;2023-02-03T05:17:33;108802.47;;;8.01;100.00
7309;BME280;3695;53.330;9.876;2023-02-03T05:20:03;108792.56;;;8.01;100.00
7309;BME280;3695;53.330;9.876;2023-02-03T05:22:30;108765.53;;;7.94;100.00
7309;BME280;3695;53.330;9.876;2023-02-03T05:24:59;108808.78;;;8.01;100.00
7309;BME280;3695;53.330;9.876;2023-02-03T05:27:27;108787.19;;;7.95;100.00
7309;BME280;3695;53.330;9.876;2023-02-03T05:29:53;108794.41;;;7.93;100.00
7309;BME280;3695;53.330;9.876;2023-02-03T05:32:20;108838.56;;;7.94;100.00
7309;BME280;3695;53.330;9.876;2023-02-03T05:34:46;108840.41;;;7.82;100.00
7309;BME280;3695;53.330;9.876;2023-02-03T05:37:13;108962.09;;;7.81;100.00
7309;BME280;3695;53.330;9.876;2023-02-03T05:39:39;109082.91;;;7.88;100.00
7309;BME280;3695;53.330;9.876;2023-02-03T05:42:05;109387.63;;;7.83;100.00
7309;BME280;3695;53.330;9.876;2023-02-03T05:44:32;109518.28;;;7.74;100.00
7309;BME280;3695;53.330;9.876;2023-02-03T05:46:59;109739.38;;;7.92;100.00
7309;BME280;3695;53.330;9.876;2023-02-03T05:49:25;109824.03;;;7.83;100.00
7309;BME280;3695;53.330;9.876;2023-02-03T05:51:53;109962.94;;;7.87;100.00
7309;BME280;3695;53.330;9.876;2023-02-03T05:54:20;110021.47;;;7.82;100.00
7309;BME280;3695;53.330;9.876;2023-02-03T05:56:47;110157.91;;;7.96;100.00
7309;BME280;3695;53.330;9.876;2023-02-03T05:59:13;110182.97;;;7.86;100.00
7309;BME280;3695;53.330;9.876;2023-02-03T06:01:41;110231.50;;;7.77;100.00
7309;BME280;3695;53.330;9.876;2023-02-03T06:04:08;110383.25;;;7.89;100.00
7309;BME280;3695;53.330;9.876;2023-02-03T06:06:34;110416.31;;;7.76;100.00
7309;BME280;3695;53.330;9.876;2023-02-03T06:09:03;110551.63;;;7.77;100.00
7309;BME280;3695;53.330;9.876;2023-02-03T06:11:30;110682.72;;;7.90;100.00
7309;BME280;3695;53.330;9.876;2023-02-03T06:13:57;110738.69;;;7.91;100.00
7309;BME280;3695;53.330;9.876;2023-02-03T06:16:24;110724.59;;;7.71;100.00
7309;BME280;3695;53.330;9.876;2023-02-03T06:18:53;110868.22;;;7.79;100.00
7309;BME280;3695;53.330;9.876;2023-02-03T06:21:20;111128.94;;;7.81;100.00
7309;BME280;3695;53.330;9.876;2023-02-03T06:23:46;111366.63;;;7.93;100.00
7309;BME280;3695;53.330;9.876;2023-02-03T06:26:13;111498.22;;;7.89;100.00
7309;BME280;3695;53.330;9.876;2023-02-03T06:28:39;111600.69;;;7.80;100.00
7309;BME280;3695;53.330;9.876;2023-02-03T06:31:06;111649.13;;;7.95;100.00
7309;BME280;3695;53.330;9.876;2023-02-03T06:33:32;112034.66;;;7.80;100.00
7309;BME280;3695;53.330;9.876;2023-02-03T06:36:00;112365.28;;;7.88;100.00
7309;BME280;3695;53.330;9.876;2023-02-03T06:38:26;112631.81;;;7.93;100.00
7309;BME280;3695;53.330;9.876;2023-02-03T06:40:53;112727.63;;;7.95;100.00
7309;BME280;3695;53.330;9.876;2023-02-03T06:43:19;112764.78;;;7.83;100.00
7309;BME280;3695;53.330;9.876;2023-02-03T06:45:46;112941.59;;;7.82;100.00
7309;BME280;3695;53.330;9.876;2023-02-03T06:48:13;113234.22;;;7.85;100.00
7309;BME280;3695;53.330;9.876;2023-02-03T06:50:40;113606.88;;;7.83;100.00
7309;BME280;3695;53.330;9.876;2023-02-03T06:53:08;114101.59;;;7.94;100.00
7309;BME280;3695;53.330;9.876;2023-02-03T06:55:34;114218.06;;;7.94;100.00
7309;BME280;3695;53.330;9.876;2023-02-03T06:58:01;114385.47;;;8.08;100.00
7309;BME280;3695;53.330;9.876;2023-02-03T07:00:27;114309.75;;;8.00;100.00
7309;BME280;3695;53.330;9.876;2023-02-03T07:02:54;114361.91;;;8.07;100.00
7309;BME280;3695;53.330;9.876;2023-02-03T07:05:21;114128.94;;;7.97;100.00
7309;BME280;3695;53.330;9.876;2023-02-03T07:07:49;114024.09;;;7.96;100.00
7309;BME280;3695;53.330;9.876;2023-02-03T07:10:17;114071.75;;;8.04;100.00
7309;BME280;3695;53.330;9.876;2023-02-03T07:12:43;114022.66;;;8.11;100.00
7309;BME280;3695;53.330;9.876;2023-02-03T07:15:10;114019.00;;;8.23;100.00
7309;BME280;3695;53.330;9.876;2023-02-03T07:17:37;113853.59;;;8.09;100.00
7309;BME280;3695;53.330;9.876;2023-02-03T07:20:04;113879.97;;;8.24;100.00
7309;BME280;3695;53.330;9.876;2023-02-03T07:22:31;113850.75;;;8.19;100.00
7309;BME280;3695;53.330;9.876;2023-02-03T07:24:57;113901.91;;;8.27;100.00
7309;BME280;3695;53.330;9.876;2023-02-03T07:27:25;113781.97;;;8.17;100.00
7309;BME280;3695;53.330;9.876;2023-02-03T07:29:52;113971.88;;;8.20;100.00
7309;BME280;3695;53.330;9.876;2023-02-03T07:32:18;114105.97;;;8.26;100.00
7309;BME280;3695;53.330;9.876;2023-02-03T07:34:45;114117.03;;;8.17;100.00
7309;BME280;3695;53.330;9.876;2023-02-03T07:37:11;114247.16;;;8.29;100.00
7309;BME280;3695;53.330;9.876;2023-02-03T07:39:37;114291.59;;;8.31;100.00
7309;BME280;3695;53.330;9.876;2023-02-03T07:42:04;114269.28;;;8.23;100.00
7309;BME280;3695;53.330;9.876;2023-02-03T07:44:32;114261.03;;;8.21;100.00
7309;BME280;3695;53.330;9.876;2023-02-03T07:46:58;114458.84;;;8.42;100.00
7309;BME280;3695;53.330;9.876;2023-02-03T07:49:25;114356.66;;;8.41;100.00
7309;BME280;3695;53.330;9.876;2023-02-03T07:51:51;114228.41;;;8.42;100.00
7309;BME280;3695;53.330;9.876;2023-02-03T07:54:18;114085.53;;;8.41;100.00
7309;BME280;3695;53.330;9.876;2023-02-03T07:56:44;113834.25;;;8.28;100.00
7309;BME280;3695;53.330;9.876;2023-02-03T07:59:11;114317.50;;;8.37;100.00
7309;BME280;3695;53.330;9.876;2023-02-03T08:01:38;114501.28;;;8.41;100.00
7309;BME280;3695;53.330;9.876;2023-02-03T08:04:05;114486.25;;;8.25;100.00
7309;BME280;3695;53.330;9.876;2023-02-03T08:06:33;114734.19;;;8.48;100.00
7309;BME280;3695;53.330;9.876;2023-02-03T08:08:59;114655.41;;;8.27;100.00
7309;BME280;3695;53.330;9.876;2023-02-03T08:11:26;115028.03;;;8.49;100.00
7309;BME280;3695;53.330;9.876;2023-02-03T08:13:52;115019.88;;;8.49;100.00
7309;BME280;3695;53.330;9.876;2023-02-03T08:16:18;115039.25;;;8.43;100.00
7309;BME280;3695;53.330;9.876;2023-02-03T08:18:46;115067.91;;;8.50;100.00
7309;BME280;3695;53.330;9.876;2023-02-03T08:21:13;115077.47;;;8.55;100.00
7309;BME280;3695;53.330;9.876;2023-02-03T08:23:39;115168.94;;;8.66;100.00
7309;BME280;3695;53.330;9.876;2023-02-03T08:26:06;114952.97;;;8.58;100.00
7309;BME280;3695;53.330;9.876;2023-02-03T08:28:32;114994.91;;;8.43;100.00
7309;BME280;3695;53.330;9.876;2023-02-03T08:30:59;115077.06;;;8.42;100.00
7309;BME280;3695;53.330;9.876;2023-02-03T08:33:25;115650.56;;;8.45;100.00
7309;BME280;3695;53.330;9.876;2023-02-03T08:35:54;116389.72;;;8.49;100.00
7309;BME280;3695;53.330;9.876;2023-02-03T08:38:21;116550.38;;;8.46;100.00
7309;BME280;3695;53.330;9.876;2023-02-03T08:40:47;117059.53;;;8.53;100.00
7309;BME280;3695;53.330;9.876;2023-02-03T08:43:13;116931.97;;;8.25;100.00
7309;BME280;3695;53.330;9.876;2023-02-03T08:45:40;115508.47;;;6.67;100.00
7309;BME280;3695;53.330;9.876;2023-02-03T08:48:06;123425.06;;;6.85;100.00
7309;BME280;3695;53.330;9.876;2023-02-03T08:50:33;125560.81;;;7.40;100.00
7309;BME280;3695;53.330;9.876;2023-02-03T08:53:01;120483.31;;;7.70;100.00
7309;BME280;3695;53.330;9.876;2023-02-03T08:55:27;114031.03;;;7.59;100.00
7309;BME280;3695;53.330;9.876;2023-02-03T08:57:54;110767.53;;;7.59;100.00
7309;BME280;3695;53.330;9.876;2023-02-03T09:00:21;108792.69;;;7.52;100.00
7309;BME280;3695;53.330;9.876;2023-02-03T09:02:47;107427.09;;;7.50;100.00
7309;BME280;3695;53.330;9.876;2023-02-03T09:05:14;106709.25;;;7.54;100.00
7309;BME280;3695;53.330;9.876;2023-02-03T09:07:43;106206.75;;;7.35;100.00
7309;BME280;3695;53.330;9.876;2023-02-03T09:10:11;106000.44;;;7.39;100.00
7309;BME280;3695;53.330;9.876;2023-02-03T09:12:37;105756.69;;;7.36;100.00
7309;BME280;3695;53.330;9.876;2023-02-03T09:15:04;105688.34;;;7.52;100.00
7309;BME280;3695;53.330;9.876;2023-02-03T09:17:31;105533.78;;;7.47;100.00
7309;BME280;3695;53.330;9.876;2023-02-03T09:19:57;105510.59;;;7.43;100.00
7309;BME280;3695;53.330;9.876;2023-02-03T09:22:23;105468.00;;;7.66;100.00
7309;BME280;3695;53.330;9.876;2023-02-03T09:24:50;105478.13;;;7.78;100.00
7309;BME280;3695;53.330;9.876;2023-02-03T09:27:18;105466.34;;;7.63;100.00
7309;BME280;3695;53.330;9.876;2023-02-03T09:29:44;105375.34;;;7.95;100.00
7309;BME280;3695;53.330;9.876;2023-02-03T09:32:11;105248.75;;;8.03;100.00
7309;BME280;3695;53.330;9.876;2023-02-03T09:34:37;105208.66;;;8.11;100.00
7309;BME280;3695;53.330;9.876;2023-02-03T09:37:05;105176.84;;;8.01;100.00
7309;BME280;3695;53.330;9.876;2023-02-03T09:39:32;105166.09;;;8.15;100.00
7309;BME280;3695;53.330;9.876;2023-02-03T09:42:13;105116.38;;;8.32;100.00
7309;BME280;3695;53.330;9.876;2023-02-03T09:44:53;105056.91;;;8.17;100.00
7309;BME280;3695;53.330;9.876;2023-02-03T09:47:27;105007.31;;;7.90;100.00
7309;BME280;3695;53.330;9.876;2023-02-03T09:49:55;104994.94;;;8.14;100.00
7309;BME280;3695;53.330;9.876;2023-02-03T09:52:25;104982.00;;;8.19;100.00
7309;BME280;3695;53.330;9.876;2023-02-03T09:54:57;104888.06;;;8.23;100.00
7309;BME280;3695;53.330;9.876;2023-02-03T09:57:27;104843.53;;;8.29;100.00
7309;BME280;3695;53.330;9.876;2023-02-03T09:59:58;104793.13;;;8.28;100.00
7309;BME280;3695;53.330;9.876;2023-02-03T10:02:37;104635.50;;;8.27;100.00
7309;BME280;3695;53.330;9.876;2023-02-03T10:05:14;104492.81;;;8.19;100.00
7309;BME280;3695;53.330;9.876;2023-02-03T10:07:50;104408.03;;;8.33;100.00
7309;BME280;3695;53.330;9.876;2023-02-03T10:10:26;104317.88;;;8.45;100.00
7309;BME280;3695;53.330;9.876;2023-02-03T10:13:01;104206.16;;;8.34;100.00
7309;BME280;3695;53.330;9.876;2023-02-03T10:15:46;104118.16;;;8.18;100.00
7309;BME280;3695;53.330;9.876;2023-02-03T10:18:18;104065.56;;;8.23;100.00
7309;BME280;3695;53.330;9.876;2023-02-03T10:20:48;104036.09;;;8.31;100.00
7309;BME280;3695;53.330;9.876;2023-02-03T10:23:18;103946.16;;;8.29;100.00
7309;BME280;3695;53.330;9.876;2023-02-03T10:25:49;103751.31;;;8.32;100.00
7309;BME280;3695;53.330;9.876;2023-02-03T10:28:21;103584.41;;;8.35;100.00
7309;BME280;3695;53.330;9.876;2023-02-03T10:30:53;103470.63;;;8.38;100.00
7309;BME280;3695;53.330;9.876;2023-02-03T10:33:24;103373.47;;;8.37;100.00
7309;BME280;3695;53.330;9.876;2023-02-03T10:35:53;103325.50;;;8.29;100.00
7309;BME280;3695;53.330;9.876;2023-02-03T10:38:33;103209.44;;;8.28;100.00
7309;BME280;3695;53.330;9.876;2023-02-03T10:41:04;103113.88;;;8.29;100.00
7309;BME280;3695;53.330;9.876;2023-02-03T10:43:31;103059.41;;;8.43;100.00
7309;BME280;3695;53.330;9.876;2023-02-03T10:46:15;103045.03;;;8.33;100.00
7309;BME280;3695;53.330;9.876;2023-02-03T10:48:42;102996.72;;;8.30;100.00
7309;BME280;3695;53.330;9.876;2023-02-03T10:51:16;102977.31;;;8.71;100.00
7309;BME280;3695;53.330;9.876;2023-02-03T10:53:44;102972.00;;;8.25;100.00
7309;BME280;3695;53.330;9.876;2023-02-03T10:56:12;102952.91;;;8.36;100.00
7309;BME280;3695;53.330;9.876;2023-02-03T10:58:46;102908.16;;;8.51;100.00
7309;BME280;3695;53.330;9.876;2023-02-03T11:01:16;102889.69;;;8.46;100.00
7309;BME280;3695;53.330;9.876;2023-02-03T11:03:53;102847.41;;;8.55;100.00
7309;BME280;3695;53.330;9.876;2023-02-03T11:06:21;102775.66;;;8.43;100.00
7309;BME280;3695;53.330;9.876;2023-02-03T11:08:49;102732.56;;;8.85;100.00
7309;BME280;3695;53.330;9.876;2023-02-03T11:11:20;102657.50;;;8.79;100.00
7309;BME280;3695;53.330;9.876;2023-02-03T11:13:51;102634.69;;;8.81;100.00
7309;BME280;3695;53.330;9.876;2023-02-03T11:16:20;102589.78;;;8.97;100.00
7309;BME280;3695;53.330;9.876;2023-02-03T11:18:54;102539.97;;;8.99;100.00
7309;BME280;3695;53.330;9.876;2023-02-03T11:21:22;102527.88;;;8.77;100.00
7309;BME280;3695;53.330;9.876;2023-02-03T11:23:53;102511.19;;;8.98;100.00
7309;BME280;3695;53.330;9.876;2023-02-03T11:26:22;102535.41;;;9.00;100.00
7309;BME280;3695;53.330;9.876;2023-02-03T11:28:51;102524.16;;;8.78;100.00
7309;BME280;3695;53.330;9.876;2023-02-03T11:31:23;102531.81;;;8.91;100.00
7309;BME280;3695;53.330;9.876;2023-02-03T11:33:53;102540.81;;;9.00;100.00
7309;BME280;3695;53.330;9.876;2023-02-03T11:36:20;102536.44;;;9.07;100.00
7309;BME280;3695;53.330;9.876;2023-02-03T11:38:47;102559.50;;;8.85;100.00
7309;BME280;3695;53.330;9.876;2023-02-03T11:41:15;102536.31;;;8.74;100.00
7309;BME280;3695;53.330;9.876;2023-02-03T11:43:43;102548.19;;;8.90;100.00
7309;BME280;3695;53.330;9.876;2023-02-03T11:46:09;102538.38;;;8.89;100.00
7309;BME280;3695;53.330;9.876;2023-02-03T11:48:41;102515.88;;;8.72;100.00
7309;BME280;3695;53.330;9.876;2023-02-03T11:51:21;102516.44;;;8.92;100.00
7309;BME280;3695;53.330;9.876;2023-02-03T11:54:01;102513.38;;;8.87;100.00
7309;BME280;3695;53.330;9.876;2023-02-03T11:56:46;102522.41;;;8.53;100.00
7309;BME280;3695;53.330;9.876;2023-02-03T11:59:34;102473.94;;;8.60;100.00
7309;BME280;3695;53.330;9.876;2023-02-03T12:02:45;102437.13;;;8.67;100.00
7309;BME280;3695;53.330;9.876;2023-02-03T12:05:29;102388.66;;;8.65;100.00
7309;BME280;3695;53.330;9.876;2023-02-03T12:08:09;102357.22;;;8.80;100.00
7309;BME280;3695;53.330;9.876;2023-02-03T12:10:46;102379.34;;;8.68;100.00
7309;BME280;3695;53.330;9.876;2023-02-03T12:13:41;102336.94;;;8.84;100.00
7309;BME280;3695;53.330;9.876;2023-02-03T12:16:20;102326.81;;;8.78;100.00
7309;BME280;3695;53.330;9.876;2023-02-03T12:19:03;102319.72;;;8.69;100.00
7309;BME280;3695;53.330;9.876;2023-02-03T12:21:42;102308.91;;;8.61;100.00
7309;BME280;3695;53.330;9.876;2023-02-03T12:24:17;102322.44;;;8.69;100.00
7309;BME280;3695;53.330;9.876;2023-02-03T12:26:55;102324.13;;;8.70;100.00
7309;BME280;3695;53.330;9.876;2023-02-03T12:29:25;102302.81;;;8.92;100.00
7309;BME280;3695;53.330;9.876;2023-02-03T12:32:03;102293.69;;;8.60;100.00
7309;BME280;3695;53.330;9.876;2023-02-03T12:34:33;102269.72;;;8.65;100.00
7309;BME280;3695;53.330;9.876;2023-02-03T12:37:05;102269.53;;;8.50;100.00
7309;BME280;3695;53.330;9.876;2023-02-03T12:39:38;102271.41;;;8.58;100.00
7309;BME280;3695;53.330;9.876;2023-02-03T12:42:12;102268.69;;;8.66;100.00
7309;BME280;3695;53.330;9.876;2023-02-03T12:44:44;102251.47;;;8.67;100.00
7309;BME280;3695;53.330;9.876;2023-02-03T12:47:24;102243.03;;;8.62;100.00
7309;BME280;3695;53.330;9.876;2023-02-03T12:49:55;102260.25;;;8.53;100.00
7309;BME280;3695;53.330;9.876;2023-02-03T12:52:26;102266.50;;;8.78;100.00
7309;BME280;3695;53.330;9.876;2023-02-03T12:55:02;102284.41;;;8.55;100.00
7309;BME280;3695;53.330;9.876;2023-02-03T12:57:35;102300.47;;;8.64;100.00
7309;BME280;3695;53.330;9.876;2023-02-03T13:00:12;102313.47;;;8.61;100.00
7309;BME280;3695;53.330;9.876;2023-02-03T13:02:51;102312.63;;;8.68;100.00
7309;BME280;3695;53.330;9.876;2023-02-03T13:05:23;102292.16;;;8.49;100.00
7309;BME280;3695;53.330;9.876;2023-02-03T13:07:58;102302.81;;;8.67;100.00
7309;BME280;3695;53.330;9.876;2023-02-03T13:10:30;102294.69;;;8.43;100.00
7309;BME280;3695;53.330;9.876;2023-02-03T13:13:01;102304.50;;;8.52;100.00
7309;BME280;3695;53.330;9.876;2023-02-03T13:15:34;102315.56;;;8.33;100.00
7309;BME280;3695;53.330;9.876;2023-02-03T13:18:04;102289.63;;;8.48;100.00
7309;BME280;3695;53.330;9.876;2023-02-03T13:20:35;102286.25;;;8.46;100.00
7309;BME280;3695;53.330;9.876;2023-02-03T13:23:05;102314.97;;;8.55;100.00
7309;BME280;3695;53.330;9.876;2023-02-03T13:25:42;102302.44;;;8.46;100.00
7309;BME280;3695;53.330;9.876;2023-02-03T13:28:17;102299.09;;;8.52;100.00
7309;BME280;3695;53.330;9.876;2023-02-03T13:31:04;102318.16;;;8.34;100.00